Time;durP1;ratioP1;P1;durP2;ratioP2;P2;SDS_P1;SDS_P2;PMS_P1;PMS_P2;Temp;Humidity;BMP_temperature;BMP_pressure;BME280_temperature;BME280_humidity;BME280_pressure;Samples;Min_cycle;Max_cycle;Signal;HPM_P1;HPM_P2
2024/02/06 00:02:44;;;;;;;2.03;0.97;;;;;;;17.34;56.58;101182.00;10412859;28;20355;-59
2024/02/06 00:07:44;;;;;;;2.67;1.23;;;;;;;17.32;55.86;101178.78;10419762;28;20287;-58
2024/02/06 00:12:44;;;;;;;2.97;1.20;;;;;;;17.34;55.89;101179.31;10419102;28;20775;-58
2024/02/06 00:17:45;;;;;;;1.88;0.95;;;;;;;17.35;55.27;101169.41;10411968;28;20311;-58
2024/02/06 00:22:45;;;;;;;3.47;1.10;;;;;;;17.32;56.25;101170.75;10413255;28;20037;-58
2024/02/06 00:27:46;;;;;;;2.50;1.17;;;;;;;17.34;55.98;101167.78;10413007;28;20461;-58
2024/02/06 00:32:46;;;;;;;1.87;1.13;;;;;;;17.35;56.73;101146.06;10424630;28;20025;-58
2024/02/06 00:37:46;;;;;;;3.30;0.97;;;;;;;17.34;56.90;101149.03;10412848;28;20276;-58
2024/02/06 00:42:47;;;;;;;2.63;2.00;;;;;;;17.31;55.82;101147.72;10411243;28;20767;-57
2024/02/06 00:47:49;;;;;;;2.40;1.70;;;;;;;17.35;55.82;101143.38;10412372;28;20280;-58
2024/02/06 00:52:49;;;;;;;3.10;1.15;;;;;;;17.32;55.46;101143.94;10412138;28;20461;-57
2024/02/06 00:57:50;;;;;;;1.93;1.00;;;;;;;17.30;56.09;101139.94;10411436;28;20025;-57
2024/02/06 01:02:50;;;;;;;2.80;1.10;;;;;;;17.30;56.94;101118.50;10411628;28;20287;-58
2024/02/06 01:07:50;;;;;;;2.13;1.10;;;;;;;17.31;56.38;101110.19;10416772;28;20325;-58
2024/02/06 01:12:51;;;;;;;1.75;0.82;;;;;;;17.32;55.98;101113.66;10416069;28;20299;-58
2024/02/06 01:17:51;;;;;;;3.27;1.23;;;;;;;17.29;55.68;101098.94;10410425;28;20049;-58
2024/02/06 01:22:51;;;;;;;3.35;1.17;;;;;;;17.30;55.61;101100.56;10411121;28;20272;-58
2024/02/06 01:27:51;;;;;;;2.72;1.63;;;;;;;17.31;55.55;101098.66;10410345;28;20063;-58
2024/02/06 01:32:52;;;;;;;2.40;1.27;;;;;;;17.30;56.18;101094.38;10417837;28;20021;-58
2024/02/06 01:37:52;;;;;;;1.67;1.00;;;;;;;17.28;55.18;101096.53;10409971;28;20276;-58
2024/02/06 01:42:53;;;;;;;2.80;1.00;;;;;;;17.32;55.24;101090.34;10410375;28;20268;-57
2024/02/06 01:47:54;;;;;;;1.63;0.93;;;;;;;17.33;55.65;101091.94;10409498;28;20109;-57
2024/02/06 01:52:54;;;;;;;2.50;1.20;;;;;;;17.33;55.99;101075.88;10408841;28;20093;-58
2024/02/06 01:57:55;;;;;;;2.38;1.40;;;;;;;17.34;55.18;101071.31;10409256;28;20025;-58
2024/02/06 02:02:56;;;;;;;3.08;1.95;;;;;;;17.31;55.99;101067.31;10409642;28;20461;-58
2024/02/06 02:07:57;;;;;;;2.20;1.48;;;;;;;17.37;56.03;101065.38;10416853;28;20103;-58
2024/02/06 02:12:57;;;;;;;2.37;1.03;;;;;;;17.35;56.00;101071.03;10414791;28;20025;-57
2024/02/06 02:17:57;;;;;;;2.73;1.70;;;;;;;17.31;55.83;101059.25;10408572;28;20296;-58
2024/02/06 02:22:57;;;;;;;2.17;0.80;;;;;;;17.32;55.42;101057.38;10409161;28;20777;-58
2024/02/06 02:27:58;;;;;;;3.05;1.10;;;;;;;17.32;55.27;101033.25;10407111;28;20033;-56
2024/02/06 02:32:59;;;;;;;3.30;1.35;;;;;;;17.31;55.52;101043.19;10433717;28;20026;-58
2024/02/06 02:37:59;;;;;;;3.05;1.65;;;;;;;17.34;55.24;101031.09;10409121;28;20040;-58
2024/02/06 02:42:59;;;;;;;2.23;1.47;;;;;;;17.32;55.64;101035.94;10422289;28;20071;-58
2024/02/06 02:48:00;;;;;;;2.10;1.20;;;;;;;17.32;55.97;101015.31;10421954;28;20860;-58
2024/02/06 02:53:00;;;;;;;2.87;1.40;;;;;;;17.35;55.32;101019.28;10420547;28;20284;-57
2024/02/06 02:58:00;;;;;;;1.93;1.10;;;;;;;17.36;54.43;101018.22;10421633;28;20276;-59
2024/02/06 03:03:01;;;;;;;3.07;1.10;;;;;;;17.36;55.52;101018.22;10422042;28;20272;-58
2024/02/06 03:08:02;;;;;;;3.42;1.40;;;;;;;17.38;55.46;100997.28;10430108;28;20275;-58
2024/02/06 03:13:03;;;;;;;2.50;1.40;;;;;;;17.35;55.39;100993.28;10426030;28;20065;-58
2024/02/06 03:18:03;;;;;;;5.88;1.65;;;;;;;17.34;55.12;100993.56;10421003;28;20053;-58
2024/02/06 03:23:04;;;;;;;1.88;1.10;;;;;;;17.35;55.62;100982.56;10428695;28;20030;-58
2024/02/06 03:28:04;;;;;;;2.28;1.33;;;;;;;17.33;56.11;100982.06;10421104;28;20036;-58
2024/02/06 03:33:05;;;;;;;2.08;1.33;;;;;;;17.36;54.97;100973.44;10422525;28;20528;-57
2024/02/06 03:38:05;;;;;;;1.45;0.93;;;;;;;17.36;55.00;100960.03;10420979;28;20107;-57
2024/02/06 03:43:06;;;;;;;2.28;1.25;;;;;;;17.34;54.57;100967.56;10419854;28;20021;-57
2024/02/06 03:48:06;;;;;;;3.70;1.60;;;;;;;17.34;55.01;100951.50;10432791;28;20021;-57
2024/02/06 03:53:08;;;;;;;5.07;1.25;;;;;;;17.34;55.02;100959.53;10415290;28;20355;-58
2024/02/06 03:58:09;;;;;;;5.15;1.67;;;;;;;17.33;55.56;100954.47;10414012;28;20032;-58
2024/02/06 04:03:09;;;;;;;3.15;1.35;;;;;;;17.34;55.75;100953.38;10414249;28;20079;-58
2024/02/06 04:08:09;;;;;;;3.20;1.20;;;;;;;17.34;55.47;100956.84;10423441;28;20029;-58
2024/02/06 04:13:10;;;;;;;3.77;1.57;;;;;;;17.33;55.56;100949.91;10417016;28;20028;-58
2024/02/06 04:18:10;;;;;;;1.87;1.00;;;;;;;17.36;54.38;100945.84;10411695;28;20048;-57
2024/02/06 04:23:11;;;;;;;2.47;1.60;;;;;;;17.35;54.37;100945.03;10421061;28;20272;-58
2024/02/06 04:28:11;;;;;;;4.35;1.40;;;;;;;17.35;54.54;100949.63;10440712;28;20063;-57
2024/02/06 04:33:11;;;;;;;3.27;1.63;;;;;;;17.35;55.12;100953.09;10429726;28;20404;-57
2024/02/06 04:38:13;;;;;;;3.80;1.10;;;;;;;17.36;55.46;100935.94;10425318;28;20326;-59
2024/02/06 04:43:14;;;;;;;3.08;1.40;;;;;;;17.46;55.09;100929.69;10411905;28;20276;-59
2024/02/06 04:48:14;;;;;;;2.17;1.40;;;;;;;17.44;54.96;100929.97;10428993;28;20029;-58
2024/02/06 04:53:15;;;;;;;3.23;1.70;;;;;;;17.49;55.35;100921.06;10418930;28;20028;-58
2024/02/06 04:58:15;;;;;;;2.15;1.52;;;;;;;17.43;56.19;100923.00;10426772;28;20268;-58
2024/02/06 05:03:15;;;;;;;4.72;1.77;;;;;;;17.42;55.20;100921.41;10440509;28;20079;-58
2024/02/06 05:08:16;;;;;;;3.67;1.37;;;;;;;17.39;55.20;100915.78;10452183;28;20025;-58
2024/02/06 05:13:16;;;;;;;4.50;1.63;;;;;;;17.31;55.38;100906.50;10413469;28;20667;-57
2024/02/06 05:18:16;;;;;;;3.03;1.30;;;;;;;17.27;56.81;100905.44;10408446;28;20597;-55
2024/02/06 05:23:18;;;;;;;3.30;1.40;;;;;;;17.25;56.66;100895.00;10423371;28;20024;-57
2024/02/06 05:28:20;;;;;;;3.15;1.20;;;;;;;17.27;56.56;100881.31;10423600;28;20342;-58
2024/02/06 05:33:20;;;;;;;3.13;1.15;;;;;;;17.23;56.57;100882.97;10426586;28;20076;-57
2024/02/06 05:38:20;;;;;;;2.97;1.63;;;;;;;17.23;56.83;100877.63;10423336;28;20481;-56
2024/02/06 05:43:20;;;;;;;3.95;1.42;;;;;;;17.27;56.04;100875.16;10413023;28;20335;-58
2024/02/06 05:48:21;;;;;;;2.50;1.00;;;;;;;17.26;57.21;100882.41;10409825;28;20025;-58
2024/02/06 05:53:21;;;;;;;3.67;1.83;;;;;;;17.28;56.51;100884.81;10410011;28;20785;-58
2024/02/06 05:58:24;;;;;;;3.97;1.40;;;;;;;17.25;56.74;100878.13;10409292;28;20287;-58
2024/02/06 06:03:24;;;;;;;6.20;2.80;;;;;;;17.24;55.60;100876.53;10409871;28;20272;-56
2024/02/06 06:08:25;;;;;;;4.20;1.30;;;;;;;17.32;56.29;100867.09;10421146;28;20044;-56
2024/02/06 06:13:25;;;;;;;7.07;1.80;;;;;;;17.46;55.86;100870.69;10409918;28;20025;-56
2024/02/06 06:18:25;;;;;;;6.80;2.40;;;;;;;17.49;57.00;100862.88;10408349;28;20284;-57
2024/02/06 06:23:26;;;;;;;5.20;1.80;;;;;;;17.47;56.63;100853.53;10407859;28;20040;-57
2024/02/06 06:28:26;;;;;;;7.10;2.53;;;;;;;17.55;56.81;100850.25;10408737;28;20025;-57
2024/02/06 06:33:26;;;;;;;10.23;2.13;;;;;;;17.44;57.37;100848.75;10432986;28;20299;-57
2024/02/06 06:38:27;;;;;;;7.63;2.83;;;;;;;17.38;57.42;100839.16;10408297;28;20272;-57
2024/02/06 06:43:28;;;;;;;8.77;2.83;;;;;;;17.30;57.69;100843.25;10408771;28;20040;-58
2024/02/06 06:48:29;;;;;;;5.13;2.22;;;;;;;17.29;57.64;100832.84;10407134;28;20407;-57
2024/02/06 06:53:30;;;;;;;5.32;1.90;;;;;;;17.30;57.30;100831.75;10406656;28;20091;-58
2024/02/06 06:58:30;;;;;;;10.03;2.67;;;;;;;17.26;57.67;100818.09;10408435;28;20022;-58
2024/02/06 07:03:30;;;;;;;7.43;2.00;;;;;;;17.24;57.53;100815.69;10408334;28;20272;-58
2024/02/06 07:08:30;;;;;;;9.00;2.43;;;;;;;17.22;58.55;100827.78;10420644;28;20267;-59
2024/02/06 07:13:31;;;;;;;11.20;2.83;;;;;;;17.24;57.84;100825.63;10415627;28;20024;-56
2024/02/06 07:18:31;;;;;;;10.87;3.47;;;;;;;17.22;58.58;100825.13;10438865;28;20300;-56
2024/02/06 07:23:32;;;;;;;8.52;2.28;;;;;;;17.19;57.91;100813.09;10444918;28;20757;-57
2024/02/06 07:28:32;;;;;;;7.78;2.10;;;;;;;17.16;57.47;100826.22;10442249;28;20026;-56
2024/02/06 07:33:32;;;;;;;7.13;2.57;;;;;;;17.21;57.16;100818.97;10428460;28;20028;-58
2024/02/06 07:38:33;;;;;;;8.47;2.03;;;;;;;17.20;57.62;100821.94;10427706;28;20774;-57
2024/02/06 07:43:35;;;;;;;10.07;2.83;;;;;;;17.22;57.57;100819.75;10430094;28;20334;-58
2024/02/06 07:48:35;;;;;;;8.65;1.88;;;;;;;17.20;57.08;100829.97;10427643;28;20109;-58
2024/02/06 07:53:36;;;;;;;6.18;2.28;;;;;;;17.15;58.33;100830.00;10424429;28;20029;-58
2024/02/06 07:58:36;;;;;;;10.60;2.50;;;;;;;17.12;57.89;100822.53;10431512;28;20706;-58
2024/02/06 08:03:37;;;;;;;3.93;2.03;;;;;;;17.14;57.33;100820.38;10425876;28;20029;-58
2024/02/06 08:08:38;;;;;;;4.25;1.70;;;;;;;17.13;57.86;100811.53;10426950;28;20750;-57
2024/02/06 08:13:42;;;;;;;6.60;2.90;;;;;;;17.13;57.69;100802.69;10413337;28;20033;-58
2024/02/06 08:18:42;;;;;;;9.57;2.10;;;;;;;17.11;57.96;100800.31;10413916;28;20053;-58
2024/02/06 08:23:42;;;;;;;5.50;2.20;;;;;;;17.13;57.77;100791.97;10412977;28;20026;-58
2024/02/06 08:28:43;;;;;;;6.10;1.80;;;;;;;17.13;57.02;100794.66;10411965;28;20056;-57
2024/02/06 08:33:44;;;;;;;4.33;1.90;;;;;;;17.16;56.91;100783.38;10413196;28;20018;-57
2024/02/06 08:38:45;;;;;;;4.82;2.33;;;;;;;17.19;56.91;100794.34;10411013;28;20280;-57
2024/02/06 08:43:45;;;;;;;4.20;1.87;;;;;;;17.20;57.60;100787.09;10412725;28;20029;-57
2024/02/06 08:48:45;;;;;;;3.03;1.53;;;;;;;17.20;57.81;100781.72;10412706;28;20315;-58
2024/02/06 08:53:46;;;;;;;3.57;1.83;;;;;;;17.21;56.76;100770.72;10425438;28;20284;-58
2024/02/06 08:58:46;;;;;;;7.05;2.55;;;;;;;17.23;56.56;100747.13;10428228;28;20298;-57
2024/02/06 09:03:46;;;;;;;3.78;1.70;;;;;;;17.22;57.72;100760.81;10419577;28;20029;-57
2024/02/06 09:08:47;;;;;;;3.53;1.47;;;;;;;17.21;57.74;100745.81;10430090;28;20055;-57
2024/02/06 09:13:47;;;;;;;6.72;2.30;;;;;;;17.20;57.38;100750.38;10410819;28;20379;-58
2024/02/06 09:18:48;;;;;;;8.17;3.27;;;;;;;17.21;56.66;100746.59;10410843;28;20086;-58
2024/02/06 09:23:49;;;;;;;4.32;1.63;;;;;;;17.23;56.53;100733.72;10423843;28;20284;-58
2024/02/06 09:28:49;;;;;;;3.77;1.60;;;;;;;17.19;56.14;100732.69;10430780;28;20029;-58
2024/02/06 09:33:49;;;;;;;4.30;1.77;;;;;;;17.23;57.09;100714.97;10417037;28;20295;-57
2024/02/06 09:38:50;;;;;;;3.83;1.83;;;;;;;17.22;57.04;100705.31;10409888;28;20659;-58
2024/02/06 09:43:51;;;;;;;4.83;2.27;;;;;;;17.22;57.04;100705.31;10408816;28;20276;-57
2024/02/06 09:48:52;;;;;;;2.90;1.60;;;;;;;17.20;57.56;100704.03;10408752;28;20275;-57
2024/02/06 09:53:57;;;;;;;3.78;2.05;;;;;;;17.21;56.01;100676.94;10409656;28;20075;-58
2024/02/06 09:59:01;;;;;;;4.43;2.08;;;;;;;17.22;57.10;100677.75;10410020;28;20108;-58
2024/02/06 10:04:03;;;;;;;5.35;1.67;;;;;;;17.25;56.56;100686.00;10408133;28;20026;-57
2024/02/06 10:09:04;;;;;;;3.03;1.40;;;;;;;17.29;56.00;100693.47;10428161;28;20425;-58
2024/02/06 10:14:05;;;;;;;3.47;1.33;;;;;;;17.28;56.94;100691.84;10429267;28;20117;-58
2024/02/06 10:19:05;;;;;;;3.53;1.63;;;;;;;17.28;56.39;100678.47;10420601;28;20131;-58
2024/02/06 10:24:06;;;;;;;3.63;1.40;;;;;;;17.28;56.15;100699.91;10408953;28;20021;-56
2024/02/06 10:29:17;;;;;;;4.93;1.50;;;;;;;17.33;56.20;100686.44;10409607;28;20308;-58
2024/02/06 10:34:18;;;;;;;3.22;1.50;;;;;;;17.33;56.37;100673.84;10409695;28;20152;-56
2024/02/06 10:39:18;;;;;;;2.83;1.50;;;;;;;17.31;56.29;100661.81;10413600;28;20029;-58
2024/02/06 10:44:26;;;;;;;3.33;2.10;;;;;;;17.29;56.81;100682.75;10425106;28;20021;-57
2024/02/06 10:49:27;;;;;;;3.13;1.60;;;;;;;17.24;56.97;100657.59;10421313;28;20310;-57
2024/02/06 10:54:27;;;;;;;4.20;1.50;;;;;;;17.26;56.51;100665.34;10414937;28;20109;-56
2024/02/06 10:59:52;;;;;;;3.70;2.35;;;;;;;17.28;55.42;100660.50;10440275;28;20047;-57
2024/02/06 11:04:58;;;;;;;3.65;2.35;;;;;;;17.30;56.95;100662.91;10426337;28;20128;-57
2024/02/06 11:10:00;;;;;;;3.30;1.63;;;;;;;17.28;57.04;100657.03;10432070;28;20023;-57
2024/02/06 11:15:05;;;;;;;4.63;1.63;;;;;;;17.25;56.07;100659.19;10437920;28;20459;-57
2024/02/06 11:20:11;;;;;;;5.00;1.70;;;;;;;17.29;56.68;100650.59;10430737;28;20045;-57
2024/02/06 11:25:18;;;;;;;3.55;1.80;;;;;;;17.27;56.64;100652.75;10430600;28;20783;-58
2024/02/06 11:30:21;;;;;;;3.72;1.40;;;;;;;17.27;55.53;100644.72;10433973;28;20404;-57
2024/02/06 11:35:27;;;;;;;3.20;1.33;;;;;;;17.27;55.19;100634.78;10433745;28;20117;-57
2024/02/06 11:40:32;;;;;;;5.05;1.70;;;;;;;17.26;56.01;100638.56;10430380;28;20099;-57
2024/02/06 11:45:36;;;;;;;3.72;1.52;;;;;;;17.25;56.38;100619.00;10421028;28;20025;-58
2024/02/06 11:50:46;;;;;;;3.42;1.40;;;;;;;17.28;55.09;100628.34;10429482;28;20400;-57
2024/02/06 11:55:46;;;;;;;;;;;;;;;17.30;56.32;100628.06;10423543;28;20041;-56
2024/02/06 12:00:47;;;;;;;3.85;1.42;;;;;;;17.30;56.14;100614.69;10424388;28;19909;-57
2024/02/06 12:05:47;;;;;;;2.90;1.98;;;;;;;17.34;55.13;100602.28;10413342;28;20083;-57
2024/02/06 12:10:47;;;;;;;2.50;1.27;;;;;;;17.34;54.96;100600.41;10424688;28;20033;-58
2024/02/06 12:15:48;;;;;;;4.43;1.63;;;;;;;17.33;56.17;100598.81;10412718;28;20053;-57
2024/02/06 12:20:48;;;;;;;5.87;2.97;;;;;;;17.32;54.97;100565.06;10430548;28;20112;-58
2024/02/06 12:25:49;;;;;;;3.72;1.85;;;;;;;17.34;56.64;100578.97;10428905;28;20735;-57
2024/02/06 12:31:00;;;;;;;4.07;2.20;;;;;;;17.35;55.24;100574.41;10426588;28;20037;-56
2024/02/06 12:36:02;;;;;;;3.03;1.33;;;;;;;17.34;55.56;100576.28;10411863;28;20035;-58
2024/02/06 12:41:03;;;;;;;2.80;1.40;;;;;;;17.34;55.47;100578.97;10420395;28;20029;-57
2024/02/06 12:46:03;;;;;;;6.32;2.42;;;;;;;17.42;55.60;100570.28;10429499;28;20409;-57
2024/02/06 12:51:04;;;;;;;5.47;1.75;;;;;;;17.41;56.74;100554.50;10427316;28;20058;-58
2024/02/06 12:56:05;;;;;;;5.78;1.75;;;;;;;17.36;55.65;100552.66;10426998;28;20030;-56
2024/02/06 13:01:06;;;;;;;4.57;1.42;;;;;;;17.36;56.61;100549.19;10451243;28;20021;-57
2024/02/06 13:06:08;;;;;;;3.10;1.55;;;;;;;17.33;55.94;100520.28;10452285;28;20029;-55
2024/02/06 13:11:10;;;;;;;4.22;2.13;;;;;;;17.32;55.81;100511.47;10430844;28;20025;-57
2024/02/06 13:16:14;;;;;;;5.85;2.10;;;;;;;17.30;56.60;100510.97;10415707;28;20132;-57
2024/02/06 13:21:16;;;;;;;6.55;2.10;;;;;;;17.21;56.27;100523.41;10416084;28;20048;-57
2024/02/06 13:26:16;;;;;;;6.07;2.03;;;;;;;17.28;58.00;100520.34;10434112;28;20036;-56
2024/02/06 13:31:16;;;;;;;9.98;2.28;;;;;;;17.35;56.90;100515.44;10439351;28;20029;-56
2024/02/06 13:36:17;;;;;;;11.90;3.23;;;;;;;17.42;56.20;100526.59;10409685;28;20029;-57
2024/02/06 13:41:18;;;;;;;12.95;2.47;;;;;;;17.41;56.76;100498.19;10408308;28;20286;-56
2024/02/06 13:46:18;;;;;;;7.82;2.28;;;;;;;17.30;57.40;100489.53;10409531;28;20025;-57
2024/02/06 13:51:19;;;;;;;11.40;2.28;;;;;;;17.27;57.60;100506.16;10430622;28;20041;-57
2024/02/06 13:56:20;;;;;;;8.13;2.63;;;;;;;17.26;56.02;100491.19;10450052;28;20444;-57
2024/02/06 14:01:23;;;;;;;6.45;1.80;;;;;;;17.24;56.11;100496.84;10444054;28;20032;-57
2024/02/06 14:06:23;;;;;;;8.02;2.17;;;;;;;17.26;56.78;100504.56;10408816;28;20033;-57
2024/02/06 14:11:24;;;;;;;6.13;1.83;;;;;;;17.27;55.96;100490.09;10422237;28;20424;-57
2024/02/06 14:16:25;;;;;;;6.90;2.10;;;;;;;17.31;55.56;100483.06;10421174;28;20795;-57
2024/02/06 14:21:25;;;;;;;4.88;2.30;;;;;;;17.32;55.41;100489.22;10408627;28;20040;-58
2024/02/06 14:26:25;;;;;;;6.40;2.47;;;;;;;17.30;55.61;100483.38;10408331;28;20048;-56
2024/02/06 14:31:27;;;;;;;13.73;3.03;;;;;;;17.35;56.34;100472.56;10407585;28;20318;-57
2024/02/06 14:36:29;;;;;;;14.50;3.78;;;;;;;17.49;56.92;100487.59;10406875;28;20025;-57
2024/02/06 14:41:30;;;;;;;12.07;2.55;;;;;;;17.48;56.85;100471.81;10408107;28;20076;-56
2024/02/06 14:46:30;;;;;;;8.10;2.13;;;;;;;17.50;57.08;100458.91;10420613;28;20106;-57
2024/02/06 14:51:30;;;;;;;6.87;2.10;;;;;;;17.49;56.63;100457.31;10421259;28;20314;-57
2024/02/06 14:56:31;;;;;;;13.13;2.88;;;;;;;17.45;57.20;100454.44;10413590;28;20287;-57
2024/02/06 15:01:31;;;;;;;9.38;3.72;;;;;;;17.46;57.08;100452.53;10407495;28;20017;-58
2024/02/06 15:06:35;;;;;;;8.87;2.57;;;;;;;17.42;57.07;100443.50;10407356;28;20384;-58
2024/02/06 15:11:37;;;;;;;6.97;2.65;;;;;;;17.39;57.02;100439.50;10427620;28;20318;-57
2024/02/06 15:16:39;;;;;;;15.10;4.65;;;;;;;17.46;61.73;100447.19;10421639;28;20497;-57
2024/02/06 15:21:40;;;;;;;38.70;14.25;;;;;;;17.45;57.73;100432.19;10416355;28;20021;-57
2024/02/06 15:26:40;;;;;;;25.25;8.90;;;;;;;17.51;57.66;100437.16;10423704;28;20021;-56
2024/02/06 15:31:41;;;;;;;27.15;9.63;;;;;;;17.52;57.54;100438.78;10430849;28;20087;-57
2024/02/06 15:36:41;;;;;;;19.45;7.45;;;;;;;17.47;57.22;100428.13;10448483;28;20036;-57
2024/02/06 15:41:42;;;;;;;18.37;6.90;;;;;;;17.56;56.46;100422.09;10424414;28;20075;-58
2024/02/06 15:46:43;;;;;;;16.08;6.13;;;;;;;17.58;56.19;100422.59;10409296;28;20025;-56
2024/02/06 15:51:44;;;;;;;15.02;6.43;;;;;;;17.61;56.92;100430.81;10413975;28;20507;-55
2024/02/06 15:56:44;;;;;;;13.57;5.20;;;;;;;17.59;56.42;100429.53;10413370;28;20028;-56
2024/02/06 16:01:47;;;;;;;14.13;5.73;;;;;;;17.57;56.12;100419.09;10414299;28;20021;-56
2024/02/06 16:06:47;;;;;;;13.30;5.05;;;;;;;17.50;55.80;100424.84;10413461;28;20280;-57
2024/02/06 16:11:49;;;;;;;18.75;4.93;;;;;;;17.44;56.25;100419.88;10432775;28;20017;-57
2024/02/06 16:16:49;;;;;;;22.80;5.90;;;;;;;17.46;55.64;100420.38;10425599;28;20504;-57
2024/02/06 16:21:50;;;;;;;11.25;5.65;;;;;;;17.43;56.24;100416.41;10417950;28;20055;-57
2024/02/06 16:26:50;;;;;;;11.55;3.88;;;;;;;17.39;56.52;100418.06;10424049;28;20026;-57
2024/02/06 16:31:50;;;;;;;10.67;4.90;;;;;;;17.36;56.62;100412.50;10413803;28;20080;-58
2024/02/06 16:36:51;;;;;;;11.52;4.38;;;;;;;17.35;56.88;100411.72;10419209;28;20385;-57
2024/02/06 16:41:51;;;;;;;14.03;4.40;;;;;;;17.41;55.90;100404.41;10428826;28;20048;-56
2024/02/06 16:46:52;;;;;;;12.17;4.17;;;;;;;17.43;55.89;100399.53;10412677;28;20039;-57
2024/02/06 16:51:52;;;;;;;11.10;4.88;;;;;;;17.52;55.98;100397.75;10418345;28;20662;-56
2024/02/06 16:56:52;;;;;;;12.80;4.93;;;;;;;17.56;55.25;100406.00;10432019;28;20388;-57
2024/02/06 17:01:53;;;;;;;10.18;3.95;;;;;;;17.59;54.50;100392.78;10453835;28;20279;-56
2024/02/06 17:06:53;;;;;;;12.50;4.25;;;;;;;17.57;55.07;100394.19;10428050;28;20108;-57
2024/02/06 17:11:53;;;;;;;9.05;3.55;;;;;;;17.51;56.10;100388.91;10429240;28;20017;-57
2024/02/06 17:16:54;;;;;;;9.43;3.60;;;;;;;17.44;55.60;100401.91;10435857;28;20058;-55
2024/02/06 17:21:54;;;;;;;14.40;4.47;;;;;;;17.45;56.23;100392.78;10409012;28;20271;-56
2024/02/06 17:26:56;;;;;;;11.98;4.55;;;;;;;17.50;58.80;100386.53;10409112;28;20033;-54
2024/02/06 17:31:56;;;;;;;9.68;3.97;;;;;;;17.53;56.89;100378.69;10411176;28;20034;-56
2024/02/06 17:36:57;;;;;;;11.93;3.90;;;;;;;17.65;58.48;100369.38;10410100;28;20547;-56
2024/02/06 17:41:57;;;;;;;14.00;4.97;;;;;;;17.79;58.17;100381.72;10408302;28;20323;-55
2024/02/06 17:46:57;;;;;;;13.33;4.67;;;;;;;17.81;57.84;100378.75;10407465;28;20890;-54
2024/02/06 17:51:58;;;;;;;11.93;4.88;;;;;;;17.78;57.89;100360.56;10407175;28;20291;-55
2024/02/06 17:56:58;;;;;;;13.70;3.90;;;;;;;17.83;58.63;100363.13;10407378;28;20033;-54
2024/02/06 18:01:58;;;;;;;13.70;4.73;;;;;;;17.82;58.17;100351.63;10419984;28;20379;-55
2024/02/06 18:06:59;;;;;;;12.88;4.70;;;;;;;17.80;58.36;100339.59;10405515;28;20292;-53
2024/02/06 18:11:59;;;;;;;15.53;4.10;;;;;;;17.64;58.16;100343.63;10422032;28;20056;-56
2024/02/06 18:17:18;;;;;;;18.17;4.07;;;;;;;17.63;58.50;100326.75;10426299;28;20298;-57
2024/02/06 18:22:18;;;;;;;11.80;3.20;;;;;;;17.55;57.94;100316.75;10414401;28;20021;-55
2024/02/06 18:27:18;;;;;;;11.20;3.53;;;;;;;17.51;57.44;100310.38;10420112;28;20036;-57
2024/02/06 18:32:19;;;;;;;8.95;3.70;;;;;;;17.44;58.53;100299.28;10424864;28;20091;-56
2024/02/06 18:37:19;;;;;;;9.13;3.93;;;;;;;17.40;59.22;100293.69;10433653;28;20100;-56
2024/02/06 18:42:19;;;;;;;16.92;4.45;;;;;;;17.34;58.76;100304.81;10438989;28;20272;-56
2024/02/06 18:47:20;;;;;;;8.70;2.77;;;;;;;17.31;58.24;100306.22;10425501;28;20558;-56
2024/02/06 18:52:20;;;;;;;13.80;4.43;;;;;;;17.28;58.53;100279.19;10408152;28;20346;-56
2024/02/06 18:57:21;;;;;;;12.00;3.90;;;;;;;17.25;57.83;100272.56;10408406;28;20627;-56
2024/02/06 19:02:21;;;;;;;9.35;3.13;;;;;;;17.31;57.48;100282.09;10408017;28;20095;-56
2024/02/06 19:07:22;;;;;;;12.38;4.22;;;;;;;17.31;57.54;100275.94;10420801;28;20037;-57
2024/02/06 19:12:22;;;;;;;8.63;4.20;;;;;;;17.28;57.96;100269.28;10426840;28;20054;-57
2024/02/06 19:17:24;;;;;;;8.93;3.50;;;;;;;17.28;58.36;100249.72;10446832;28;20302;-55
2024/02/06 19:22:24;;;;;;;9.85;3.58;;;;;;;17.27;58.70;100262.31;10453754;28;20271;-56
2024/02/06 19:27:24;;;;;;;8.93;3.28;;;;;;;17.30;57.77;100250.25;10438138;28;20699;-56
2024/02/06 19:32:25;;;;;;;8.82;3.58;;;;;;;17.30;58.47;100260.97;10438890;28;20048;-55
2024/02/06 19:37:25;;;;;;;6.47;3.13;;;;;;;17.34;57.09;100257.38;10430481;28;20028;-56
2024/02/06 19:42:25;;;;;;;12.07;4.05;;;;;;;17.35;57.17;100263.53;10430795;28;20287;-56
2024/02/06 19:47:26;;;;;;;7.87;3.03;;;;;;;17.35;58.16;100263.53;10435789;28;20372;-57
2024/02/06 19:52:27;;;;;;;9.23;2.97;;;;;;;17.34;57.59;100249.34;10431108;28;20288;-56
2024/02/06 19:57:30;;;;;;;11.38;3.70;;;;;;;17.39;56.87;100246.53;10450429;28;20365;-55
2024/02/06 20:02:30;;;;;;;14.68;4.43;;;;;;;17.39;58.20;100237.72;10435028;28;20024;-56
2024/02/06 20:07:31;;;;;;;18.73;5.50;;;;;;;17.42;57.09;100245.19;10433379;28;20380;-56
2024/02/06 20:12:31;;;;;;;7.10;2.50;;;;;;;17.38;57.35;100241.50;10432143;28;20664;-55
2024/02/06 20:17:32;;;;;;;12.38;3.47;;;;;;;17.37;57.75;100229.97;10411080;28;20659;-55
2024/02/06 20:22:33;;;;;;;14.73;3.30;;;;;;;17.37;57.83;100240.69;10411840;28;20024;-56
2024/02/06 20:27:34;;;;;;;8.23;4.03;;;;;;;17.36;56.94;100225.72;10414014;28;20022;-56
2024/02/06 20:32:34;;;;;;;7.70;3.35;;;;;;;17.34;56.70;100222.53;10412729;28;20091;-56
2024/02/06 20:37:36;;;;;;;9.20;3.53;;;;;;;17.32;57.75;100231.97;10412090;28;20469;-56
2024/02/06 20:42:36;;;;;;;8.77;3.85;;;;;;;17.33;57.74;100207.56;10413045;28;20665;-57
2024/02/06 20:47:37;;;;;;;9.70;3.03;;;;;;;17.34;56.94;100219.84;10413179;28;20025;-56
2024/02/06 20:52:37;;;;;;;8.10;3.92;;;;;;;17.36;56.80;100203.47;10413062;28;20840;-57
2024/02/06 20:57:38;;;;;;;8.40;2.85;;;;;;;17.39;57.16;100208.22;10412785;28;20108;-56
2024/02/06 21:02:38;;;;;;;6.28;3.45;;;;;;;17.38;56.54;100198.59;10412389;28;20025;-56
2024/02/06 21:07:39;;;;;;;5.90;2.53;;;;;;;17.34;57.52;100178.88;10417783;28;20102;-57
2024/02/06 21:12:42;;;;;;;7.23;2.87;;;;;;;17.30;57.02;100200.13;10419566;28;20189;-57
2024/02/06 21:17:43;;;;;;;6.28;3.17;;;;;;;17.33;57.77;100198.72;10423028;28;20331;-57
2024/02/06 21:22:43;;;;;;;8.18;3.20;;;;;;;17.34;57.65;100187.69;10411401;28;20040;-57
2024/02/06 21:27:43;;;;;;;7.13;2.97;;;;;;;17.35;57.41;100183.13;10411575;28;20025;-56
2024/02/06 21:32:44;;;;;;;5.70;2.83;;;;;;;17.37;56.54;100160.31;10436417;28;20639;-56
2024/02/06 21:37:44;;;;;;;7.57;2.57;;;;;;;17.38;57.55;100153.84;10411256;28;20017;-57
2024/02/06 21:42:46;;;;;;;7.03;2.67;;;;;;;17.39;56.76;100157.31;10410430;28;20272;-56
2024/02/06 21:47:46;;;;;;;7.25;3.33;;;;;;;17.43;56.30;100144.91;10410909;28;20756;-56
2024/02/06 21:52:46;;;;;;;6.25;2.95;;;;;;;17.45;57.67;100137.38;10410061;28;20017;-56
2024/02/06 21:57:49;;;;;;;4.60;2.23;;;;;;;17.44;56.78;100133.91;10410745;28;20044;-56
2024/02/06 22:02:49;;;;;;;7.25;2.55;;;;;;;17.42;57.63;100111.19;10409967;28;20367;-56
2024/02/06 22:07:49;;;;;;;3.83;1.83;;;;;;;17.43;57.45;100116.22;10416934;28;20043;-57
2024/02/06 22:12:50;;;;;;;7.68;2.88;;;;;;;17.43;56.29;100102.84;10415808;28;20346;-56
2024/02/06 22:17:50;;;;;;;6.83;2.97;;;;;;;17.41;56.02;100110.38;10409890;28;20057;-57
2024/02/06 22:22:50;;;;;;;4.28;1.90;;;;;;;17.39;57.26;100095.69;10409570;28;20268;-57
2024/02/06 22:27:51;;;;;;;5.40;2.58;;;;;;;17.36;57.34;100083.69;10409476;28;20116;-57
2024/02/06 22:32:51;;;;;;;5.23;3.43;;;;;;;17.34;57.75;100072.47;10408272;28;20037;-56
2024/02/06 22:37:51;;;;;;;4.23;1.93;;;;;;;17.37;56.15;100066.50;10409176;28;20280;-55
2024/02/06 22:42:52;;;;;;;4.18;2.20;;;;;;;17.36;56.66;100075.66;10408788;28;20731;-57
2024/02/06 22:47:52;;;;;;;6.28;1.92;;;;;;;17.32;57.47;100072.00;10420058;28;20059;-56
2024/02/06 22:52:53;;;;;;;4.90;1.90;;;;;;;17.34;56.83;100077.84;10408585;28;20057;-56
2024/02/06 22:57:53;;;;;;;4.47;2.57;;;;;;;17.35;57.53;100081.31;10414720;28;20276;-57
2024/02/06 23:02:55;;;;;;;4.93;2.40;;;;;;;17.34;56.16;100099.28;10416877;28;20268;-56